Echo Of Wight — VQIP9 — position and weather

sailwx.info

Track history (hours):
 
Tides and Currents Weather Stations Pressure Air Temp Water Temp Dewpoint Dewpoint Depression Visibility Wind Speed Wind Dir Waves Ship Positions

Echo Of Wight

Last reported at 2017-Sep-21 17:08 UTC. Time now 2017-Sep-22 22:20 UTC.
Position N 50°51' W 001°06'.

Length 10 m.

Type: Sailing vessel. MMSI: 235008623.

Date/timePositionNaut miles runAvg speedWind from/ knotsBaromVisibWave heightAir tempDewpointWater temp
2017-Sep-21 17:08N 50°51' W 001°06'0 0.0
2017-Sep-21 16:59N 50°51' W 001°06'0 0.0
2017-Sep-21 16:29N 50°51' W 001°06'0 0.0
2017-Sep-21 15:59N 50°51' W 001°06'0 0.0
2017-Sep-21 15:29N 50°51' W 001°06'0 0.0
2017-Sep-21 14:59N 50°51' W 001°06'0 0.0
2017-Sep-21 14:26N 50°51' W 001°06'0 0.0
2017-Sep-21 13:59N 50°51' W 001°06'0 0.0
2017-Sep-21 13:29N 50°51' W 001°06'0 0.0
2017-Sep-21 12:59N 50°51' W 001°06'0 0.0
2017-Sep-21 12:28N 50°51' W 001°06'0 0.0
2017-Sep-21 11:58N 50°51' W 001°06'0 0.0
2017-Sep-21 11:28N 50°51' W 001°06'0 0.0
2017-Sep-21 10:58N 50°51' W 001°06'0 0.0
2017-Sep-21 10:28N 50°51' W 001°06'0 0.0
2017-Sep-21 09:58N 50°51' W 001°06'0 0.0
2017-Sep-21 09:28N 50°51' W 001°06'0 0.0
2017-Sep-21 08:58N 50°51' W 001°06'0 0.0
2017-Sep-20 14:48N 50°51' W 001°06'0 0.0
2017-Sep-20 14:00N 50°51' W 001°06'0 0.0
2017-Sep-20 13:30N 50°51' W 001°06'0 0.0
2017-Sep-20 12:59N 50°51' W 001°06'0 0.0
2017-Sep-20 12:29N 50°51' W 001°06'0 0.0
2017-Sep-20 11:59N 50°51' W 001°06'0 0.0
2017-Sep-20 11:29N 50°51' W 001°06'0 0.0
2017-Sep-20 10:56N 50°51' W 001°06'0 0.5
2017-Sep-20 10:30N 50°51' W 001°06'2 4.6
2017-Sep-20 10:00N 50°48' W 001°07'2 4.7
2017-Sep-20 09:30N 50°46' W 001°09'3 5.4
2017-Sep-20 09:00N 50°46' W 001°13'3 5.3
2017-Sep-20 08:26N 50°46' W 001°18'0 0.0
2017-Sep-19 17:32N 50°46' W 001°18'9 7.7
2017-Sep-19 16:21N 50°43' W 001°31'4 7.1
2017-Sep-19 15:51N 50°40' W 001°36'35 6.4
2017-Sep-19 10:26N 50°07' W 001°23'3 5.8
2017-Sep-19 10:00N 50°05' W 001°25'3 6.4
2017-Sep-19 09:30N 50°03' W 001°29'4 7.2
2017-Sep-19 09:00N 50°00' W 001°34'4 8.1
2017-Sep-19 08:30N 49°58' W 001°39'4 8.4
2017-Sep-19 08:00N 49°56' W 001°44'4 8.6
2017-Sep-19 07:30N 49°54' W 001°50'  
Track history (hours):
 
Tides and Currents Weather Stations Pressure Air Temp Water Temp Dewpoint Dewpoint Depression Visibility Wind Speed Wind Dir Waves Ship Positions

Echo Of Wight

Last reported at 2017-Sep-21 17:08 UTC. Time now 2017-Sep-22 22:20 UTC.
Position N 50°51' W 001°06'.

Length 10 m.

Type: Sailing vessel. MMSI: 235008623.

Date/timePositionNaut miles runAvg speedWind from/ knotsBaromVisibWave heightAir tempDewpointWater temp
2017-Sep-21 17:08N 50°51' W 001°06'0 0.0
2017-Sep-21 16:59N 50°51' W 001°06'0 0.0
2017-Sep-21 16:29N 50°51' W 001°06'0 0.0
2017-Sep-21 15:59N 50°51' W 001°06'0 0.0
2017-Sep-21 15:29N 50°51' W 001°06'0 0.0
2017-Sep-21 14:59N 50°51' W 001°06'0 0.0
2017-Sep-21 14:26N 50°51' W 001°06'0 0.0
2017-Sep-21 13:59N 50°51' W 001°06'0 0.0
2017-Sep-21 13:29N 50°51' W 001°06'0 0.0
2017-Sep-21 12:59N 50°51' W 001°06'0 0.0
2017-Sep-21 12:28N 50°51' W 001°06'0 0.0
2017-Sep-21 11:58N 50°51' W 001°06'0 0.0
2017-Sep-21 11:28N 50°51' W 001°06'0 0.0
2017-Sep-21 10:58N 50°51' W 001°06'0 0.0
2017-Sep-21 10:28N 50°51' W 001°06'0 0.0
2017-Sep-21 09:58N 50°51' W 001°06'0 0.0
2017-Sep-21 09:28N 50°51' W 001°06'0 0.0
2017-Sep-21 08:58N 50°51' W 001°06'0 0.0
2017-Sep-20 14:48N 50°51' W 001°06'0 0.0
2017-Sep-20 14:00N 50°51' W 001°06'0 0.0
2017-Sep-20 13:30N 50°51' W 001°06'0 0.0
2017-Sep-20 12:59N 50°51' W 001°06'0 0.0
2017-Sep-20 12:29N 50°51' W 001°06'0 0.0
2017-Sep-20 11:59N 50°51' W 001°06'0 0.0
2017-Sep-20 11:29N 50°51' W 001°06'0 0.0
2017-Sep-20 10:56N 50°51' W 001°06'0 0.5
2017-Sep-20 10:30N 50°51' W 001°06'2 4.6
2017-Sep-20 10:00N 50°48' W 001°07'2 4.7
2017-Sep-20 09:30N 50°46' W 001°09'3 5.4
2017-Sep-20 09:00N 50°46' W 001°13'3 5.3
2017-Sep-20 08:26N 50°46' W 001°18'0 0.0
2017-Sep-19 17:32N 50°46' W 001°18'9 7.7
2017-Sep-19 16:21N 50°43' W 001°31'4 7.1
2017-Sep-19 15:51N 50°40' W 001°36'35 6.4
2017-Sep-19 10:26N 50°07' W 001°23'3 5.8
2017-Sep-19 10:00N 50°05' W 001°25'3 6.4
2017-Sep-19 09:30N 50°03' W 001°29'4 7.2
2017-Sep-19 09:00N 50°00' W 001°34'4 8.1
2017-Sep-19 08:30N 49°58' W 001°39'4 8.4
2017-Sep-19 08:00N 49°56' W 001°44'4 8.6
2017-Sep-19 07:30N 49°54' W 001°50'  

Dump ship's entire track history